map of BAB home
BAB - Airport
Location
City:  Marysville, California, United States
Name:Beale AFB
ICAO:KBAB
IATA:BAB
FAA LID:BAB

Details
Type:Airport (Airfield)
Use:Military
Latitude:3908'10"N (39.136101)
Longitude:12126'12"W (-121.436584)
Datum:WGS 1984
Elevation:112 ft (34 m)
Variation:13.53E (WMM2015 magnetic declination)
-0.10 annual change
Runways:1
Longest:12001 × 300 ft (3658 × 91.5 m), paved

Time
Time Zone:UTC-8 (DST-7)
Local Time:

Weather
METAR:KBAB 220258Z AUTO 04003KT 10SM CLR 09/05 A3027 RMK AO2 SLP254 T00900050 52014 $

Related Locations
Nearby:
Farthest:FTU: 11251 mi / 18106 km
Tolagnaro [Maurillac Airport (Fort Dauphin Airport)], MG

Find:

   beyond  
but within

Other Information
Maps:
NOTAMs:
Links:
Sources:

  
  • flag of United States
  • flag of California
  

Airport Diagram

Airport diagram for BAB

Airport diagram PDF from FAA

Sectional Chart

Flight Planning
at skyvector.com

Satellite Image

Google Maps Satellite view

 

Copyright © 2004-2019 Karl L. Swartz. All rights reserved.
The Great Circle Mapper name and logo are trademarks of the Great Circle Mapper.
All other trademarks mentioned herein belong to their respective owners.
Please see credits for attibutions and further copyright information.

  Follow gcmap on Facebook Follow gcmap on Twitter Follow gcmap on Google+ GCmap on LinkedIn

hCard Microformat

Geo Microformat